sensor_id;sensor_type;location;lat;lon;timestamp;pressure;altitude;pressure_sealevel;temperature
80246;BMP280;69558;39.208;-77.226;2024-02-14T00:00:09;99728.94;;;16.18
80246;BMP280;69558;39.208;-77.226;2024-02-14T00:02:46;99735.41;;;16.23
80246;BMP280;69558;39.208;-77.226;2024-02-14T00:05:16;99737.22;;;16.22
80246;BMP280;69558;39.208;-77.226;2024-02-14T00:07:42;99731.00;;;16.23
80246;BMP280;69558;39.208;-77.226;2024-02-14T00:10:09;99725.75;;;16.23
80246;BMP280;69558;39.208;-77.226;2024-02-14T00:12:36;99739.66;;;16.24
80246;BMP280;69558;39.208;-77.226;2024-02-14T00:15:04;99742.72;;;16.27
80246;BMP280;69558;39.208;-77.226;2024-02-14T00:17:32;99746.13;;;16.28
80246;BMP280;69558;39.208;-77.226;2024-02-14T00:20:03;99743.34;;;16.29
80246;BMP280;69558;39.208;-77.226;2024-02-14T00:22:31;99748.56;;;16.29
80246;BMP280;69558;39.208;-77.226;2024-02-14T00:24:58;99749.00;;;16.33
80246;BMP280;69558;39.208;-77.226;2024-02-14T00:27:25;99749.63;;;16.35
80246;BMP280;69558;39.208;-77.226;2024-02-14T00:29:52;99756.69;;;16.34
80246;BMP280;69558;39.208;-77.226;2024-02-14T00:32:19;99771.81;;;16.39
80246;BMP280;69558;39.208;-77.226;2024-02-14T00:34:45;99771.03;;;16.38
80246;BMP280;69558;39.208;-77.226;2024-02-14T00:37:12;99773.03;;;16.36
80246;BMP280;69558;39.208;-77.226;2024-02-14T00:39:38;99784.66;;;16.34
80246;BMP280;69558;39.208;-77.226;2024-02-14T00:42:04;99776.34;;;16.30
80246;BMP280;69558;39.208;-77.226;2024-02-14T00:44:31;99777.97;;;16.31
80246;BMP280;69558;39.208;-77.226;2024-02-14T00:46:58;99775.91;;;16.27
80246;BMP280;69558;39.208;-77.226;2024-02-14T00:49:28;99771.94;;;16.31
80246;BMP280;69558;39.208;-77.226;2024-02-14T00:51:55;99775.19;;;16.33
80246;BMP280;69558;39.208;-77.226;2024-02-14T00:54:21;99777.97;;;16.31
80246;BMP280;69558;39.208;-77.226;2024-02-14T00:56:50;99780.41;;;16.33
80246;BMP280;69558;39.208;-77.226;2024-02-14T00:59:16;99780.78;;;16.30
80246;BMP280;69558;39.208;-77.226;2024-02-14T01:01:42;99784.22;;;16.30
80246;BMP280;69558;39.208;-77.226;2024-02-14T01:04:10;99786.56;;;16.25
80246;BMP280;69558;39.208;-77.226;2024-02-14T01:06:37;99782.66;;;16.21
80246;BMP280;69558;39.208;-77.226;2024-02-14T01:09:05;99790.44;;;16.29
80246;BMP280;69558;39.208;-77.226;2024-02-14T01:11:33;99797.47;;;16.29
80246;BMP280;69558;39.208;-77.226;2024-02-14T01:13:59;99796.84;;;16.27
80246;BMP280;69558;39.208;-77.226;2024-02-14T01:16:33;99787.19;;;16.27
80246;BMP280;69558;39.208;-77.226;2024-02-14T01:19:03;99786.56;;;16.25
80246;BMP280;69558;39.208;-77.226;2024-02-14T01:21:29;99782.94;;;16.26
80246;BMP280;69558;39.208;-77.226;2024-02-14T01:23:55;99782.34;;;16.24
80246;BMP280;69558;39.208;-77.226;2024-02-14T01:26:21;99789.38;;;16.24
80246;BMP280;69558;39.208;-77.226;2024-02-14T01:28:51;99785.28;;;16.21
80246;BMP280;69558;39.208;-77.226;2024-02-14T01:31:18;99793.34;;;16.19
80246;BMP280;69558;39.208;-77.226;2024-02-14T01:33:45;99795.34;;;16.17
80246;BMP280;69558;39.208;-77.226;2024-02-14T01:36:11;99793.69;;;16.16
80246;BMP280;69558;39.208;-77.226;2024-02-14T01:38:38;99788.66;;;16.15
80246;BMP280;69558;39.208;-77.226;2024-02-14T01:41:05;99785.22;;;16.14
80246;BMP280;69558;39.208;-77.226;2024-02-14T01:43:31;99798.38;;;16.21
80246;BMP280;69558;39.208;-77.226;2024-02-14T01:46:05;99798.56;;;16.19
80246;BMP280;69558;39.208;-77.226;2024-02-14T01:48:35;99798.03;;;16.24
80246;BMP280;69558;39.208;-77.226;2024-02-14T01:51:04;99809.31;;;16.25
80246;BMP280;69558;39.208;-77.226;2024-02-14T01:53:33;99808.31;;;16.26
80246;BMP280;69558;39.208;-77.226;2024-02-14T01:56:01;99814.81;;;16.30
80246;BMP280;69558;39.208;-77.226;2024-02-14T01:58:29;99812.81;;;16.32
80246;BMP280;69558;39.208;-77.226;2024-02-14T02:00:56;99812.00;;;16.31
80246;BMP280;69558;39.208;-77.226;2024-02-14T02:03:27;99814.25;;;16.34
80246;BMP280;69558;39.208;-77.226;2024-02-14T02:05:56;99817.59;;;16.28
80246;BMP280;69558;39.208;-77.226;2024-02-14T02:08:26;99818.41;;;16.29
80246;BMP280;69558;39.208;-77.226;2024-02-14T02:10:53;99817.59;;;16.28
80246;BMP280;69558;39.208;-77.226;2024-02-14T02:13:22;99821.22;;;16.27
80246;BMP280;69558;39.208;-77.226;2024-02-14T02:15:48;99823.66;;;16.29
80246;BMP280;69558;39.208;-77.226;2024-02-14T02:18:17;99815.34;;;16.25
80246;BMP280;69558;39.208;-77.226;2024-02-14T02:20:43;99822.84;;;16.28
80246;BMP280;69558;39.208;-77.226;2024-02-14T02:23:14;99828.69;;;16.30
80246;BMP280;69558;39.208;-77.226;2024-02-14T02:25:42;99833.31;;;16.28
80246;BMP280;69558;39.208;-77.226;2024-02-14T02:28:08;99825.81;;;16.25
80246;BMP280;69558;39.208;-77.226;2024-02-14T02:30:37;99832.84;;;16.25
80246;BMP280;69558;39.208;-77.226;2024-02-14T02:33:06;99848.75;;;16.23
80246;BMP280;69558;39.208;-77.226;2024-02-14T02:35:34;99841.88;;;16.22
80246;BMP280;69558;39.208;-77.226;2024-02-14T02:38:00;99843.25;;;16.18
80246;BMP280;69558;39.208;-77.226;2024-02-14T02:40:26;99841.00;;;16.15
80246;BMP280;69558;39.208;-77.226;2024-02-14T02:42:55;99852.09;;;16.17
80246;BMP280;69558;39.208;-77.226;2024-02-14T02:45:21;99846.66;;;16.18
80246;BMP280;69558;39.208;-77.226;2024-02-14T02:47:49;99842.44;;;16.17
80246;BMP280;69558;39.208;-77.226;2024-02-14T02:50:18;99840.19;;;16.14
80246;BMP280;69558;39.208;-77.226;2024-02-14T02:52:45;99848.47;;;16.18
80246;BMP280;69558;39.208;-77.226;2024-02-14T02:55:13;99835.81;;;16.07
80246;BMP280;69558;39.208;-77.226;2024-02-14T02:57:43;99843.31;;;16.10
80246;BMP280;69558;39.208;-77.226;2024-02-14T03:00:10;99860.09;;;16.15
80246;BMP280;69558;39.208;-77.226;2024-02-14T03:02:41;99871.75;;;16.13
80246;BMP280;69558;39.208;-77.226;2024-02-14T03:05:13;99880.59;;;16.12
80246;BMP280;69558;39.208;-77.226;2024-02-14T03:07:44;99871.47;;;16.08
80246;BMP280;69558;39.208;-77.226;2024-02-14T03:10:12;99877.84;;;16.05
80246;BMP280;69558;39.208;-77.226;2024-02-14T03:12:40;99890.94;;;16.05
80246;BMP280;69558;39.208;-77.226;2024-02-14T03:15:07;99896.00;;;16.07
80246;BMP280;69558;39.208;-77.226;2024-02-14T03:17:37;99900.41;;;16.06
80246;BMP280;69558;39.208;-77.226;2024-02-14T03:20:04;99911.88;;;16.05
80246;BMP280;69558;39.208;-77.226;2024-02-14T03:22:37;99911.69;;;16.07
80246;BMP280;69558;39.208;-77.226;2024-02-14T03:25:08;99902.69;;;16.09
80246;BMP280;69558;39.208;-77.226;2024-02-14T03:27:36;99913.75;;;16.11
80246;BMP280;69558;39.208;-77.226;2024-02-14T03:30:07;99909.38;;;16.12
80246;BMP280;69558;39.208;-77.226;2024-02-14T03:32:34;99914.44;;;16.13
80246;BMP280;69558;39.208;-77.226;2024-02-14T03:35:00;99918.47;;;16.16
80246;BMP280;69558;39.208;-77.226;2024-02-14T03:37:27;99924.50;;;16.16
80246;BMP280;69558;39.208;-77.226;2024-02-14T03:39:53;99928.38;;;16.20
80246;BMP280;69558;39.208;-77.226;2024-02-14T03:42:21;99935.91;;;16.24
80246;BMP280;69558;39.208;-77.226;2024-02-14T03:44:47;99924.63;;;16.23
80246;BMP280;69558;39.208;-77.226;2024-02-14T03:47:16;99926.59;;;16.21
80246;BMP280;69558;39.208;-77.226;2024-02-14T03:49:45;99942.56;;;16.26
80246;BMP280;69558;39.208;-77.226;2024-02-14T03:52:11;99937.72;;;16.23
80246;BMP280;69558;39.208;-77.226;2024-02-14T03:54:37;99941.97;;;16.24
80246;BMP280;69558;39.208;-77.226;2024-02-14T03:57:04;99940.34;;;16.23
80246;BMP280;69558;39.208;-77.226;2024-02-14T03:59:36;99934.09;;;16.24
80246;BMP280;69558;39.208;-77.226;2024-02-14T04:02:03;99932.03;;;16.19
80246;BMP280;69558;39.208;-77.226;2024-02-14T04:04:30;99949.53;;;16.19
80246;BMP280;69558;39.208;-77.226;2024-02-14T04:06:56;99948.72;;;16.18
80246;BMP280;69558;39.208;-77.226;2024-02-14T04:09:24;99953.13;;;16.18
80246;BMP280;69558;39.208;-77.226;2024-02-14T04:11:50;99961.34;;;16.15
80246;BMP280;69558;39.208;-77.226;2024-02-14T04:14:16;99959.50;;;16.15
80246;BMP280;69558;39.208;-77.226;2024-02-14T04:16:42;99958.91;;;16.13
80246;BMP280;69558;39.208;-77.226;2024-02-14T04:19:08;99962.66;;;16.11
80246;BMP280;69558;39.208;-77.226;2024-02-14T04:21:37;99971.31;;;16.11
80246;BMP280;69558;39.208;-77.226;2024-02-14T04:24:04;99971.31;;;16.11
80246;BMP280;69558;39.208;-77.226;2024-02-14T04:26:30;99973.34;;;16.09
80246;BMP280;69558;39.208;-77.226;2024-02-14T04:28:56;99975.47;;;16.06
80246;BMP280;69558;39.208;-77.226;2024-02-14T04:31:22;99969.63;;;16.04
80246;BMP280;69558;39.208;-77.226;2024-02-14T04:33:48;99969.41;;;16.05
80246;BMP280;69558;39.208;-77.226;2024-02-14T04:36:20;99977.09;;;16.07
80246;BMP280;69558;39.208;-77.226;2024-02-14T04:38:47;99977.25;;;16.05
80246;BMP280;69558;39.208;-77.226;2024-02-14T04:41:13;99972.84;;;16.06
80246;BMP280;69558;39.208;-77.226;2024-02-14T04:43:40;99973.03;;;16.04
80246;BMP280;69558;39.208;-77.226;2024-02-14T04:46:06;99966.81;;;16.05
80246;BMP280;69558;39.208;-77.226;2024-02-14T04:48:34;99962.09;;;16.01
80246;BMP280;69558;39.208;-77.226;2024-02-14T04:51:00;99973.09;;;15.96
80246;BMP280;69558;39.208;-77.226;2024-02-14T04:53:26;99970.66;;;15.95
80246;BMP280;69558;39.208;-77.226;2024-02-14T04:55:52;99972.47;;;15.94
80246;BMP280;69558;39.208;-77.226;2024-02-14T04:58:19;99975.56;;;15.98
80246;BMP280;69558;39.208;-77.226;2024-02-14T05:00:45;99972.56;;;16.01
80246;BMP280;69558;39.208;-77.226;2024-02-14T05:03:11;99983.84;;;16.01
80246;BMP280;69558;39.208;-77.226;2024-02-14T05:05:38;99973.09;;;15.96
80246;BMP280;69558;39.208;-77.226;2024-02-14T05:08:04;99973.22;;;16.03
80246;BMP280;69558;39.208;-77.226;2024-02-14T05:10:33;99970.41;;;16.04
80246;BMP280;69558;39.208;-77.226;2024-02-14T05:12:59;99972.69;;;16.07
80246;BMP280;69558;39.208;-77.226;2024-02-14T05:15:26;99970.09;;;16.07
80246;BMP280;69558;39.208;-77.226;2024-02-14T05:17:52;99972.53;;;16.09
80246;BMP280;69558;39.208;-77.226;2024-02-14T05:20:18;99975.94;;;16.09
80246;BMP280;69558;39.208;-77.226;2024-02-14T05:22:44;99979.34;;;16.10
80246;BMP280;69558;39.208;-77.226;2024-02-14T05:25:10;99980.44;;;16.15
80246;BMP280;69558;39.208;-77.226;2024-02-14T05:27:36;99999.03;;;16.20
80246;BMP280;69558;39.208;-77.226;2024-02-14T05:30:03;99994.34;;;16.16
80246;BMP280;69558;39.208;-77.226;2024-02-14T05:32:31;99999.25;;;16.19
80246;BMP280;69558;39.208;-77.226;2024-02-14T05:34:57;100001.50;;;16.22
80246;BMP280;69558;39.208;-77.226;2024-02-14T05:37:23;100000.06;;;16.19
80246;BMP280;69558;39.208;-77.226;2024-02-14T05:39:49;100011.53;;;16.18
80246;BMP280;69558;39.208;-77.226;2024-02-14T05:42:15;100015.94;;;16.18
80246;BMP280;69558;39.208;-77.226;2024-02-14T05:44:44;100016.75;;;16.18
80246;BMP280;69558;39.208;-77.226;2024-02-14T05:47:10;100011.69;;;16.17
80246;BMP280;69558;39.208;-77.226;2024-02-14T05:49:40;100010.84;;;16.16
80246;BMP280;69558;39.208;-77.226;2024-02-14T05:52:07;99998.75;;;16.15
80246;BMP280;69558;39.208;-77.226;2024-02-14T05:54:34;100011.84;;;16.15
80246;BMP280;69558;39.208;-77.226;2024-02-14T05:57:00;99998.47;;;16.10
80246;BMP280;69558;39.208;-77.226;2024-02-14T05:59:29;99995.72;;;16.12
80246;BMP280;69558;39.208;-77.226;2024-02-14T06:01:56;100013.03;;;16.13
80246;BMP280;69558;39.208;-77.226;2024-02-14T06:04:22;100014.03;;;16.12
80246;BMP280;69558;39.208;-77.226;2024-02-14T06:06:48;100020.59;;;16.08
80246;BMP280;69558;39.208;-77.226;2024-02-14T06:09:14;100019.41;;;16.10
80246;BMP280;69558;39.208;-77.226;2024-02-14T06:11:39;100023.03;;;16.09
80246;BMP280;69558;39.208;-77.226;2024-02-14T06:14:06;100016.34;;;16.07
80246;BMP280;69558;39.208;-77.226;2024-02-14T06:16:33;100038.53;;;16.11
80246;BMP280;69558;39.208;-77.226;2024-02-14T06:18:59;100036.75;;;16.11
80246;BMP280;69558;39.208;-77.226;2024-02-14T06:21:25;100035.91;;;16.11
80246;BMP280;69558;39.208;-77.226;2024-02-14T06:23:52;100038.75;;;16.09
80246;BMP280;69558;39.208;-77.226;2024-02-14T06:26:18;100037.13;;;16.08
80246;BMP280;69558;39.208;-77.226;2024-02-14T06:28:45;100016.50;;;16.05
80246;BMP280;69558;39.208;-77.226;2024-02-14T06:31:11;100035.81;;;16.04
80246;BMP280;69558;39.208;-77.226;2024-02-14T06:33:37;100029.59;;;16.05
80246;BMP280;69558;39.208;-77.226;2024-02-14T06:36:04;100037.66;;;16.04
80246;BMP280;69558;39.208;-77.226;2024-02-14T06:38:33;100035.81;;;16.04
80246;BMP280;69558;39.208;-77.226;2024-02-14T06:40:59;100034.22;;;16.03
80246;BMP280;69558;39.208;-77.226;2024-02-14T06:43:26;100040.25;;;16.04
80246;BMP280;69558;39.208;-77.226;2024-02-14T06:45:51;100037.16;;;16.00
80246;BMP280;69558;39.208;-77.226;2024-02-14T06:48:17;100047.91;;;16.05
80246;BMP280;69558;39.208;-77.226;2024-02-14T06:50:47;100061.66;;;16.07
80246;BMP280;69558;39.208;-77.226;2024-02-14T06:53:13;100071.13;;;16.08
80246;BMP280;69558;39.208;-77.226;2024-02-14T06:55:39;100064.09;;;16.09
80246;BMP280;69558;39.208;-77.226;2024-02-14T06:58:04;100072.56;;;16.11
80246;BMP280;69558;39.208;-77.226;2024-02-14T07:00:30;100075.03;;;16.12
80246;BMP280;69558;39.208;-77.226;2024-02-14T07:02:56;100064.09;;;16.09
80246;BMP280;69558;39.208;-77.226;2024-02-14T07:05:22;100079.56;;;16.18
80246;BMP280;69558;39.208;-77.226;2024-02-14T07:07:48;100094.91;;;16.21
80246;BMP280;69558;39.208;-77.226;2024-02-14T07:10:15;100093.91;;;16.23
80246;BMP280;69558;39.208;-77.226;2024-02-14T07:12:41;100084.25;;;16.23
80246;BMP280;69558;39.208;-77.226;2024-02-14T07:15:07;100080.00;;;16.22
80246;BMP280;69558;39.208;-77.226;2024-02-14T07:17:33;100090.63;;;16.20
80246;BMP280;69558;39.208;-77.226;2024-02-14T07:19:59;100073.66;;;16.16
80246;BMP280;69558;39.208;-77.226;2024-02-14T07:22:25;100080.53;;;16.17
80246;BMP280;69558;39.208;-77.226;2024-02-14T07:24:51;100085.78;;;16.17
80246;BMP280;69558;39.208;-77.226;2024-02-14T07:27:19;100086.94;;;16.15
80246;BMP280;69558;39.208;-77.226;2024-02-14T07:29:46;100076.97;;;16.10
80246;BMP280;69558;39.208;-77.226;2024-02-14T07:32:12;100082.69;;;16.14
80246;BMP280;69558;39.208;-77.226;2024-02-14T07:34:41;100088.75;;;16.14
80246;BMP280;69558;39.208;-77.226;2024-02-14T07:37:07;100084.50;;;16.13
80246;BMP280;69558;39.208;-77.226;2024-02-14T07:39:33;100086.31;;;16.13
80246;BMP280;69558;39.208;-77.226;2024-02-14T07:42:03;100099.38;;;16.13
80246;BMP280;69558;39.208;-77.226;2024-02-14T07:44:29;100077.19;;;16.09
80246;BMP280;69558;39.208;-77.226;2024-02-14T07:46:55;100107.56;;;16.10
80246;BMP280;69558;39.208;-77.226;2024-02-14T07:49:21;100093.72;;;16.01
80246;BMP280;69558;39.208;-77.226;2024-02-14T07:51:47;100102.03;;;16.05
80246;BMP280;69558;39.208;-77.226;2024-02-14T07:54:13;100110.53;;;16.07
80246;BMP280;69558;39.208;-77.226;2024-02-14T07:56:39;100101.72;;;16.08
80246;BMP280;69558;39.208;-77.226;2024-02-14T07:59:05;100101.84;;;16.06
80246;BMP280;69558;39.208;-77.226;2024-02-14T08:01:31;100105.47;;;16.05
80246;BMP280;69558;39.208;-77.226;2024-02-14T08:03:58;100109.56;;;16.08
80246;BMP280;69558;39.208;-77.226;2024-02-14T08:06:24;100118.84;;;16.10
80246;BMP280;69558;39.208;-77.226;2024-02-14T08:08:50;100121.44;;;16.10
80246;BMP280;69558;39.208;-77.226;2024-02-14T08:11:23;100124.75;;;16.12
80246;BMP280;69558;39.208;-77.226;2024-02-14T08:13:48;100121.94;;;16.14
80246;BMP280;69558;39.208;-77.226;2024-02-14T08:16:14;100127.34;;;16.12
80246;BMP280;69558;39.208;-77.226;2024-02-14T08:18:40;100135.94;;;16.21
80246;BMP280;69558;39.208;-77.226;2024-02-14T08:21:09;100137.59;;;16.22
80246;BMP280;69558;39.208;-77.226;2024-02-14T08:23:36;100138.53;;;16.21
80246;BMP280;69558;39.208;-77.226;2024-02-14T08:26:04;100148.88;;;16.23
80246;BMP280;69558;39.208;-77.226;2024-02-14T08:28:36;100148.88;;;16.23
80246;BMP280;69558;39.208;-77.226;2024-02-14T08:31:03;100140.56;;;16.19
80246;BMP280;69558;39.208;-77.226;2024-02-14T08:33:29;100141.53;;;16.18
80246;BMP280;69558;39.208;-77.226;2024-02-14T08:35:55;100136.13;;;16.19
80246;BMP280;69558;39.208;-77.226;2024-02-14T08:38:22;100139.06;;;16.16
80246;BMP280;69558;39.208;-77.226;2024-02-14T08:40:48;100137.00;;;16.12
80246;BMP280;69558;39.208;-77.226;2024-02-14T08:43:14;100143.69;;;16.14
80246;BMP280;69558;39.208;-77.226;2024-02-14T08:45:41;100145.50;;;16.14
80246;BMP280;69558;39.208;-77.226;2024-02-14T08:48:07;100147.31;;;16.13
80246;BMP280;69558;39.208;-77.226;2024-02-14T08:50:33;100140.59;;;16.11
80246;BMP280;69558;39.208;-77.226;2024-02-14T08:52:59;100137.34;;;16.09
80246;BMP280;69558;39.208;-77.226;2024-02-14T08:55:25;100149.94;;;16.05
80246;BMP280;69558;39.208;-77.226;2024-02-14T08:57:51;100146.19;;;16.08
80246;BMP280;69558;39.208;-77.226;2024-02-14T09:00:17;100155.16;;;16.05
80246;BMP280;69558;39.208;-77.226;2024-02-14T09:02:46;100154.34;;;16.05
80246;BMP280;69558;39.208;-77.226;2024-02-14T09:05:15;100148.50;;;16.03
80246;BMP280;69558;39.208;-77.226;2024-02-14T09:07:42;100153.88;;;16.01
80246;BMP280;69558;39.208;-77.226;2024-02-14T09:10:09;100158.16;;;16.02
80246;BMP280;69558;39.208;-77.226;2024-02-14T09:12:38;100154.69;;;16.02
80246;BMP280;69558;39.208;-77.226;2024-02-14T09:15:07;100168.47;;;16.04
80246;BMP280;69558;39.208;-77.226;2024-02-14T09:17:33;100165.84;;;16.04
80246;BMP280;69558;39.208;-77.226;2024-02-14T09:20:00;100178.53;;;16.07
80246;BMP280;69558;39.208;-77.226;2024-02-14T09:22:26;100168.94;;;16.07
80246;BMP280;69558;39.208;-77.226;2024-02-14T09:24:52;100163.69;;;16.07
80246;BMP280;69558;39.208;-77.226;2024-02-14T09:27:19;100167.56;;;16.11
80246;BMP280;69558;39.208;-77.226;2024-02-14T09:29:45;100176.25;;;16.12
80246;BMP280;69558;39.208;-77.226;2024-02-14T09:32:11;100177.72;;;16.14
80246;BMP280;69558;39.208;-77.226;2024-02-14T09:34:37;100179.31;;;16.15
80246;BMP280;69558;39.208;-77.226;2024-02-14T09:37:03;100175.09;;;16.14
80246;BMP280;69558;39.208;-77.226;2024-02-14T09:39:31;100170.47;;;16.16
80246;BMP280;69558;39.208;-77.226;2024-02-14T09:41:59;100183.41;;;16.18
80246;BMP280;69558;39.208;-77.226;2024-02-14T09:44:28;100178.69;;;16.13
80246;BMP280;69558;39.208;-77.226;2024-02-14T09:46:58;100186.38;;;16.15
80246;BMP280;69558;39.208;-77.226;2024-02-14T09:49:25;100186.56;;;16.13
80246;BMP280;69558;39.208;-77.226;2024-02-14T09:51:52;100178.88;;;16.12
80246;BMP280;69558;39.208;-77.226;2024-02-14T09:54:18;100166.63;;;16.04
80246;BMP280;69558;39.208;-77.226;2024-02-14T09:56:50;100181.03;;;16.08
80246;BMP280;69558;39.208;-77.226;2024-02-14T09:59:22;100176.47;;;16.02
80246;BMP280;69558;39.208;-77.226;2024-02-14T10:01:48;100184.31;;;16.02
80246;BMP280;69558;39.208;-77.226;2024-02-14T10:04:16;100190.38;;;16.03
80246;BMP280;69558;39.208;-77.226;2024-02-14T10:06:44;100214.88;;;16.02
80246;BMP280;69558;39.208;-77.226;2024-02-14T10:09:10;100214.06;;;16.01
80246;BMP280;69558;39.208;-77.226;2024-02-14T10:11:37;100209.19;;;15.98
80246;BMP280;69558;39.208;-77.226;2024-02-14T10:14:06;100205.25;;;15.94
80246;BMP280;69558;39.208;-77.226;2024-02-14T10:16:37;100216.22;;;15.98
80246;BMP280;69558;39.208;-77.226;2024-02-14T10:19:03;100210.31;;;15.96
80246;BMP280;69558;39.208;-77.226;2024-02-14T10:21:33;100213.13;;;15.94
80246;BMP280;69558;39.208;-77.226;2024-02-14T10:24:00;100228.63;;;15.96
80246;BMP280;69558;39.208;-77.226;2024-02-14T10:26:26;100227.00;;;15.95
80246;BMP280;69558;39.208;-77.226;2024-02-14T10:28:52;100230.59;;;15.94
80246;BMP280;69558;39.208;-77.226;2024-02-14T10:31:17;100237.69;;;15.93
80246;BMP280;69558;39.208;-77.226;2024-02-14T10:33:43;100231.44;;;15.94
80246;BMP280;69558;39.208;-77.226;2024-02-14T10:36:12;100238.47;;;15.94
80246;BMP280;69558;39.208;-77.226;2024-02-14T10:38:39;100238.63;;;15.92
80246;BMP280;69558;39.208;-77.226;2024-02-14T10:41:05;100245.53;;;15.93
80246;BMP280;69558;39.208;-77.226;2024-02-14T10:43:33;100243.53;;;15.95
80246;BMP280;69558;39.208;-77.226;2024-02-14T10:46:00;100250.25;;;15.98
80246;BMP280;69558;39.208;-77.226;2024-02-14T10:48:35;100241.41;;;15.99
80246;BMP280;69558;39.208;-77.226;2024-02-14T10:51:05;100243.81;;;16.00
80246;BMP280;69558;39.208;-77.226;2024-02-14T10:53:33;100238.41;;;16.02
80246;BMP280;69558;39.208;-77.226;2024-02-14T10:56:00;100235.66;;;16.03
80246;BMP280;69558;39.208;-77.226;2024-02-14T10:58:29;100235.81;;;16.02
80246;BMP280;69558;39.208;-77.226;2024-02-14T11:00:55;100234.03;;;16.02
80246;BMP280;69558;39.208;-77.226;2024-02-14T11:03:22;100239.88;;;16.04
80246;BMP280;69558;39.208;-77.226;2024-02-14T11:05:48;100245.63;;;16.08
80246;BMP280;69558;39.208;-77.226;2024-02-14T11:08:20;100249.19;;;16.07
80246;BMP280;69558;39.208;-77.226;2024-02-14T11:10:54;100249.88;;;16.09
80246;BMP280;69558;39.208;-77.226;2024-02-14T11:13:21;100269.00;;;16.09
80246;BMP280;69558;39.208;-77.226;2024-02-14T11:15:51;100265.72;;;16.07
80246;BMP280;69558;39.208;-77.226;2024-02-14T11:18:27;100279.47;;;16.09
80246;BMP280;69558;39.208;-77.226;2024-02-14T11:20:55;100299.06;;;16.05
80246;BMP280;69558;39.208;-77.226;2024-02-14T11:23:23;100302.38;;;16.07
80246;BMP280;69558;39.208;-77.226;2024-02-14T11:25:49;100310.34;;;16.06
80246;BMP280;69558;39.208;-77.226;2024-02-14T11:28:23;100312.66;;;16.01
80246;BMP280;69558;39.208;-77.226;2024-02-14T11:30:51;100328.53;;;15.99
80246;BMP280;69558;39.208;-77.226;2024-02-14T11:35:45;100330.16;;;16.00
80246;BMP280;69558;39.208;-77.226;2024-02-14T11:38:11;100332.16;;;15.98
80246;BMP280;69558;39.208;-77.226;2024-02-14T11:40:38;100341.13;;;15.96
80246;BMP280;69558;39.208;-77.226;2024-02-14T11:43:10;100349.16;;;15.94
80246;BMP280;69558;39.208;-77.226;2024-02-14T11:45:36;100367.97;;;15.98
80246;BMP280;69558;39.208;-77.226;2024-02-14T11:48:05;100376.78;;;15.97
80246;BMP280;69558;39.208;-77.226;2024-02-14T11:50:31;100389.84;;;15.97
80246;BMP280;69558;39.208;-77.226;2024-02-14T11:52:59;100398.69;;;15.96
80246;BMP280;69558;39.208;-77.226;2024-02-14T11:55:28;100404.72;;;15.96
80246;BMP280;69558;39.208;-77.226;2024-02-14T11:57:58;100412.59;;;15.96
80246;BMP280;69558;39.208;-77.226;2024-02-14T12:00:24;100414.88;;;15.91
80246;BMP280;69558;39.208;-77.226;2024-02-14T12:02:51;100415.69;;;15.92
80246;BMP280;69558;39.208;-77.226;2024-02-14T12:05:18;100418.47;;;15.90
80246;BMP280;69558;39.208;-77.226;2024-02-14T12:07:44;100424.03;;;15.87
80246;BMP280;69558;39.208;-77.226;2024-02-14T12:10:10;100429.59;;;15.92
80246;BMP280;69558;39.208;-77.226;2024-02-14T12:12:38;100431.25;;;15.93
80246;BMP280;69558;39.208;-77.226;2024-02-14T12:15:04;100426.97;;;15.92
80246;BMP280;69558;39.208;-77.226;2024-02-14T12:17:32;100426.47;;;15.97
80246;BMP280;69558;39.208;-77.226;2024-02-14T12:20:11;100442.03;;;15.98
80246;BMP280;69558;39.208;-77.226;2024-02-14T12:22:40;100429.91;;;15.97
80246;BMP280;69558;39.208;-77.226;2024-02-14T12:25:07;100436.00;;;15.98
80246;BMP280;69558;39.208;-77.226;2024-02-14T12:27:34;100434.81;;;16.00
80246;BMP280;69558;39.208;-77.226;2024-02-14T12:30:03;100447.72;;;16.02
80246;BMP280;69558;39.208;-77.226;2024-02-14T12:32:29;100458.19;;;16.02
80246;BMP280;69558;39.208;-77.226;2024-02-14T12:34:56;100447.06;;;16.00
80246;BMP280;69558;39.208;-77.226;2024-02-14T12:37:23;100457.03;;;16.04
80246;BMP280;69558;39.208;-77.226;2024-02-14T12:39:49;100460.47;;;16.05
80246;BMP280;69558;39.208;-77.226;2024-02-14T12:42:14;100473.41;;;16.06
80246;BMP280;69558;39.208;-77.226;2024-02-14T12:44:40;100473.41;;;16.06
80246;BMP280;69558;39.208;-77.226;2024-02-14T12:47:06;100474.38;;;16.05
80246;BMP280;69558;39.208;-77.226;2024-02-14T12:49:34;100483.22;;;16.04
80246;BMP280;69558;39.208;-77.226;2024-02-14T12:52:00;100485.03;;;16.04
80246;BMP280;69558;39.208;-77.226;2024-02-14T12:54:26;100496.28;;;16.04
80246;BMP280;69558;39.208;-77.226;2024-02-14T12:56:55;100505.28;;;16.02
80246;BMP280;69558;39.208;-77.226;2024-02-14T12:59:20;100506.44;;;15.99
80246;BMP280;69558;39.208;-77.226;2024-02-14T13:01:46;100506.63;;;15.98
80246;BMP280;69558;39.208;-77.226;2024-02-14T13:04:13;100511.88;;;15.98
80246;BMP280;69558;39.208;-77.226;2024-02-14T13:06:42;100516.41;;;15.96
80246;BMP280;69558;39.208;-77.226;2024-02-14T13:09:08;100521.66;;;15.96
80246;BMP280;69558;39.208;-77.226;2024-02-14T13:11:34;100510.53;;;15.94
80246;BMP280;69558;39.208;-77.226;2024-02-14T13:13:59;100519.19;;;15.94
80246;BMP280;69558;39.208;-77.226;2024-02-14T13:16:25;100521.00;;;15.94
80246;BMP280;69558;39.208;-77.226;2024-02-14T13:18:51;100524.41;;;15.94
80246;BMP280;69558;39.208;-77.226;2024-02-14T13:21:18;100529.66;;;15.94
80246;BMP280;69558;39.208;-77.226;2024-02-14T13:23:44;100535.09;;;15.93
80246;BMP280;69558;39.208;-77.226;2024-02-14T13:26:10;100523.78;;;15.92
80246;BMP280;69558;39.208;-77.226;2024-02-14T13:28:36;100535.22;;;15.91
80246;BMP280;69558;39.208;-77.226;2024-02-14T13:31:01;100529.97;;;15.91
80246;BMP280;69558;39.208;-77.226;2024-02-14T13:33:28;100529.97;;;15.91
80246;BMP280;69558;39.208;-77.226;2024-02-14T13:35:54;100533.56;;;15.90
80246;BMP280;69558;39.208;-77.226;2024-02-14T13:38:20;100549.28;;;15.90